Time;durP1;ratioP1;P1;durP2;ratioP2;P2;SDS_P1;SDS_P2;PMS_P1;PMS_P2;Temp;Humidity;BMP_temperature;BMP_pressure;BME280_temperature;BME280_humidity;BME280_pressure;Samples;Min_cycle;Max_cycle;Signal;HPM_P1;HPM_P2
2023/08/09 00:01:48;;;;;;;1.97;1.40;;;;;;;17.23;76.16;95432.53;4971580;28;20327;-70
2023/08/09 00:04:14;;;;;;;3.00;1.43;;;;;;;17.25;76.21;95428.63;4933491;29;20237;-69
2023/08/09 00:06:39;;;;;;;1.87;1.40;;;;;;;17.20;76.28;95427.69;5033265;28;20245;-69
2023/08/09 00:09:05;;;;;;;2.07;1.30;;;;;;;17.20;76.09;95427.69;4935261;28;20241;-69
2023/08/09 00:11:31;;;;;;;1.83;1.40;;;;;;;17.16;76.23;95429.19;4924450;28;20870;-70
2023/08/09 00:13:57;;;;;;;1.70;1.40;;;;;;;17.21;76.32;95427.50;4942434;28;20619;-69
2023/08/09 00:16:22;;;;;;;2.77;1.40;;;;;;;17.21;75.88;95427.50;4919371;28;20233;-69
2023/08/09 00:18:48;;;;;;;2.53;1.30;;;;;;;16.67;78.89;95428.47;4925297;28;20324;-70
2023/08/09 00:21:13;;;;;;;1.47;1.30;;;;;;;16.15;81.72;95427.31;4943310;28;20268;-69
2023/08/09 00:23:39;;;;;;;2.97;1.40;;;;;;;16.47;80.35;95429.75;4934375;28;20729;-71
2023/08/09 00:26:04;;;;;;;2.77;1.40;;;;;;;16.70;79.12;95422.75;4935135;28;20225;-70
2023/08/09 00:28:30;;;;;;;3.17;1.40;;;;;;;16.85;77.81;95417.06;4956353;28;20263;-69
2023/08/09 00:30:55;;;;;;;1.97;1.40;;;;;;;16.94;77.19;95415.69;4946919;28;20714;-71
2023/08/09 00:33:23;;;;;;;3.53;1.40;;;;;;;16.84;77.75;95418.91;4947679;28;20745;-70
2023/08/09 00:35:51;;;;;;;3.30;1.40;;;;;;;16.94;77.75;95420.97;4949854;28;20732;-70
2023/08/09 00:38:18;;;;;;;1.97;1.40;;;;;;;16.94;77.44;95417.53;4935493;28;20256;-70
2023/08/09 00:40:43;;;;;;;1.77;1.40;;;;;;;16.98;77.59;95424.00;4935698;28;20240;-70
2023/08/09 00:43:09;;;;;;;1.77;1.53;;;;;;;16.97;78.01;95417.09;4929743;28;20314;-69
2023/08/09 00:45:34;;;;;;;1.57;1.30;;;;;;;16.79;78.50;95410.81;4922994;28;20236;-70
2023/08/09 00:48:03;;;;;;;1.40;1.30;;;;;;;16.67;80.00;95411.84;4919448;28;20311;-70
2023/08/09 00:50:29;;;;;;;1.50;1.40;;;;;;;16.58;80.07;95410.53;4940012;28;20718;-70
2023/08/09 00:52:54;;;;;;;2.73;1.40;;;;;;;16.73;79.24;95408.28;4950104;28;20252;-69
2023/08/09 00:55:20;;;;;;;1.97;1.30;;;;;;;16.43;81.62;95410.09;4951226;28;20272;-69
2023/08/09 00:57:46;;;;;;;1.40;1.30;;;;;;;16.62;79.92;95406.41;4948221;28;20237;-70
2023/08/09 01:00:12;;;;;;;1.97;1.37;;;;;;;16.60;80.22;95413.75;4939661;28;20239;-70
2023/08/09 01:02:38;;;;;;;3.17;1.40;;;;;;;16.57;80.23;95412.38;4941709;28;20235;-70
2023/08/09 01:05:04;;;;;;;3.27;1.60;;;;;;;16.42;80.97;95416.41;4954430;28;20241;-70
2023/08/09 01:07:54;;;;;;;2.27;1.30;;;;;;;16.58;80.03;95408.69;4924783;28;20621;-70
2023/08/09 01:10:31;;;;;;;2.63;1.50;;;;;;;16.49;80.20;95412.66;4918454;28;20249;-71
2023/08/09 01:13:00;;;;;;;2.20;1.50;;;;;;;16.65;79.42;95400.66;4987307;28;20232;-70
2023/08/09 01:15:25;;;;;;;2.40;1.33;;;;;;;16.56;79.99;95402.84;4932389;28;20232;-69
2023/08/09 01:17:52;;;;;;;3.87;1.67;;;;;;;16.68;79.54;95408.16;4935610;28;20237;-69
2023/08/09 01:20:18;;;;;;;3.90;1.60;;;;;;;16.66;79.56;95407.56;4983606;28;20236;-69
2023/08/09 01:22:50;;;;;;;2.43;1.40;;;;;;;16.57;79.68;95408.94;4930901;28;20286;-70
2023/08/09 01:25:16;;;;;;;2.50;1.40;;;;;;;16.62;79.37;95409.84;4983731;28;20245;-69
2023/08/09 01:27:42;;;;;;;2.40;1.40;;;;;;;16.54;80.35;95410.19;4943533;28;20244;-70
2023/08/09 01:30:09;;;;;;;2.40;1.50;;;;;;;16.70;79.00;95414.00;4928696;29;20248;-69
2023/08/09 01:32:34;;;;;;;2.77;1.37;;;;;;;16.12;81.47;95411.09;4945365;28;20334;-69
2023/08/09 01:35:00;;;;;;;1.47;1.27;;;;;;;16.33;81.71;95407.19;4919604;29;20250;-69
2023/08/09 01:37:52;;;;;;;1.73;1.43;;;;;;;16.23;81.86;95413.00;4930285;29;20248;-68
2023/08/09 01:40:18;;;;;;;1.80;1.43;;;;;;;16.13;81.92;95410.88;4994844;28;20266;-68
2023/08/09 01:42:43;;;;;;;1.50;1.40;;;;;;;16.00;83.39;95408.38;4926984;28;20996;-69
2023/08/09 01:45:10;;;;;;;3.37;1.50;;;;;;;16.07;82.26;95409.09;4951981;28;20251;-68
2023/08/09 01:47:36;;;;;;;1.70;1.40;;;;;;;15.94;83.21;95409.28;4937251;28;20228;-69
2023/08/09 01:50:01;;;;;;;1.67;1.33;;;;;;;16.04;82.85;95412.22;4929706;28;20252;-68
2023/08/09 01:52:27;;;;;;;3.20;1.50;;;;;;;15.92;83.92;95410.50;4965467;28;20245;-69
2023/08/09 01:54:53;;;;;;;1.50;1.40;;;;;;;15.97;83.41;95411.47;4946494;28;20248;-69
2023/08/09 01:57:19;;;;;;;2.77;1.40;;;;;;;15.83;83.28;95414.47;4949990;28;20241;-69
2023/08/09 01:59:45;;;;;;;1.50;1.40;;;;;;;15.85;83.79;95415.88;4951720;28;20256;-69
2023/08/09 02:02:11;;;;;;;4.83;1.47;;;;;;;15.76;83.83;95419.81;4961135;28;20232;-69
2023/08/09 02:04:36;;;;;;;2.30;1.50;;;;;;;15.81;83.84;95421.81;4935341;28;20247;-69
2023/08/09 02:07:02;;;;;;;1.40;1.30;;;;;;;15.60;84.74;95416.94;4949963;28;20268;-69
2023/08/09 02:09:28;;;;;;;4.03;1.50;;;;;;;15.64;84.55;95413.66;4948049;28;20714;-69
2023/08/09 02:11:54;;;;;;;1.50;1.40;;;;;;;15.75;84.11;95412.13;4919733;28;20964;-69
2023/08/09 02:14:20;;;;;;;2.23;1.37;;;;;;;15.70;84.40;95418.06;4940854;28;20368;-69
2023/08/09 02:16:46;;;;;;;2.03;1.50;;;;;;;15.81;83.69;95411.25;4951333;28;20240;-69
2023/08/09 02:19:12;;;;;;;1.50;1.40;;;;;;;15.48;85.56;95415.03;4974618;28;20244;-69
2023/08/09 02:21:38;;;;;;;2.77;1.60;;;;;;;15.32;86.41;95425.28;4950686;28;20224;-71
2023/08/09 02:24:05;;;;;;;2.57;1.60;;;;;;;15.32;86.73;95415.53;4951501;28;20241;-69
2023/08/09 02:26:31;;;;;;;2.33;1.60;;;;;;;15.40;85.83;95417.09;4953489;28;20236;-75
2023/08/09 02:28:57;;;;;;;2.37;1.40;;;;;;;15.29;86.79;95417.78;4946293;28;20240;-75
2023/08/09 02:31:23;;;;;;;2.20;1.50;;;;;;;15.40;85.53;95415.25;4949685;28;20232;-75
2023/08/09 02:33:48;;;;;;;3.70;1.50;;;;;;;15.28;86.39;95418.84;4931760;28;20248;-75
2023/08/09 02:36:13;;;;;;;2.43;1.30;;;;;;;15.15;86.82;95418.94;4931161;29;20860;-75
2023/08/09 02:38:40;;;;;;;2.07;1.53;;;;;;;15.09;87.52;95422.44;4929946;29;20260;-74
2023/08/09 02:41:06;;;;;;;1.97;1.40;;;;;;;15.00;87.68;95421.09;4934793;29;20229;-74
2023/08/09 02:43:31;;;;;;;2.37;1.50;;;;;;;14.88;87.78;95428.06;4975143;28;20240;-75
2023/08/09 02:45:57;;;;;;;3.57;1.53;;;;;;;14.85;88.04;95435.38;4965883;28;20237;-74
2023/08/09 02:48:24;;;;;;;3.23;1.57;;;;;;;14.95;88.16;95444.66;4955511;28;20229;-76
2023/08/09 02:50:50;;;;;;;2.57;1.30;;;;;;;15.00;88.05;95434.28;4911588;28;20781;-76
2023/08/09 02:53:15;;;;;;;2.37;1.50;;;;;;;15.07;87.42;95430.53;4950341;28;20730;-74
2023/08/09 02:55:42;;;;;;;2.70;1.60;;;;;;;14.90;88.28;95433.94;4935376;28;20242;-75
2023/08/09 02:58:10;;;;;;;4.33;1.60;;;;;;;15.03;87.98;95432.00;4931056;28;20225;-75
2023/08/09 03:00:36;;;;;;;3.50;2.00;;;;;;;14.95;87.70;95428.84;4934417;28;20271;-75
2023/08/09 03:03:04;;;;;;;4.97;2.10;;;;;;;14.77;88.93;95437.47;4934992;28;20225;-75
2023/08/09 03:05:30;;;;;;;3.30;1.70;;;;;;;14.61;89.50;95436.16;4931145;29;20240;-76
2023/08/09 03:07:55;;;;;;;4.30;1.90;;;;;;;14.86;88.66;95436.19;4937380;28;20950;-75
2023/08/09 03:10:22;;;;;;;2.43;1.80;;;;;;;14.80;88.79;95437.03;4935987;28;20628;-74
2023/08/09 03:12:47;;;;;;;2.60;2.03;;;;;;;14.91;88.57;95443.44;5026444;28;20237;-74
2023/08/09 03:15:13;;;;;;;3.03;2.10;;;;;;;15.04;88.15;95452.09;4995508;28;20240;-75
2023/08/09 03:17:39;;;;;;;2.50;1.97;;;;;;;15.02;88.48;95450.69;4928134;28;20240;-74
2023/08/09 03:20:14;;;;;;;3.63;1.83;;;;;;;14.76;89.55;95447.19;4952401;28;20232;-74
2023/08/09 03:22:44;;;;;;;3.47;2.10;;;;;;;14.77;89.91;95448.00;4941886;29;20247;-75
2023/08/09 03:25:11;;;;;;;4.50;2.20;;;;;;;14.69;90.50;95451.69;4922312;29;20242;-74
2023/08/09 03:27:37;;;;;;;3.30;2.00;;;;;;;14.77;89.82;95454.09;4937618;29;20239;-74
2023/08/09 03:30:04;;;;;;;4.00;2.20;;;;;;;14.59;90.73;95446.06;5022833;28;20234;-75
2023/08/09 03:32:29;;;;;;;4.33;2.37;;;;;;;14.53;90.98;95451.38;4921102;29;20240;-75
2023/08/09 03:34:55;;;;;;;4.53;2.47;;;;;;;14.74;90.41;95454.50;4931299;28;20253;-75
2023/08/09 03:37:21;;;;;;;3.93;2.47;;;;;;;14.44;90.99;95458.72;4934900;28;20290;-75
2023/08/09 03:39:46;;;;;;;4.93;2.40;;;;;;;14.35;92.09;95467.88;4989629;28;20821;-75
2023/08/09 03:42:12;;;;;;;5.77;2.40;;;;;;;14.56;91.62;95466.75;4933416;29;20264;-74
2023/08/09 03:44:37;;;;;;;4.03;2.37;;;;;;;14.49;91.34;95466.81;4940092;28;20290;-75
2023/08/09 03:47:03;;;;;;;4.10;2.40;;;;;;;14.62;91.19;95466.72;4958849;28;20320;-76
2023/08/09 03:49:29;;;;;;;6.77;2.70;;;;;;;14.68;90.67;95479.06;4919800;28;20240;-73
2023/08/09 03:51:55;;;;;;;6.73;2.90;;;;;;;14.59;90.11;95477.69;4923450;28;20223;-75
2023/08/09 03:54:20;;;;;;;4.13;2.63;;;;;;;14.62;90.45;95477.25;4936752;28;20236;-75
2023/08/09 03:56:46;;;;;;;7.60;3.03;;;;;;;14.83;89.63;95481.44;4948860;28;20322;-75
2023/08/09 03:59:11;;;;;;;4.90;2.53;;;;;;;14.75;89.63;95479.84;4969971;28;20267;-74
2023/08/09 04:01:37;;;;;;;4.07;2.57;;;;;;;14.68;89.94;95480.88;4931460;28;20240;-75
2023/08/09 04:04:03;;;;;;;4.80;2.67;;;;;;;14.76;90.06;95485.91;4996795;28;20241;-74
2023/08/09 04:06:29;;;;;;;2.93;2.50;;;;;;;14.80;89.01;95487.13;4944372;28;20242;-75
2023/08/09 04:08:55;;;;;;;5.23;2.53;;;;;;;14.65;89.56;95482.13;4934500;28;20315;-75
2023/08/09 04:11:21;;;;;;;4.87;2.73;;;;;;;14.85;88.84;95485.44;4932918;28;20642;-75
2023/08/09 04:13:49;;;;;;;5.23;2.80;;;;;;;14.72;89.66;95482.88;4983605;28;20237;-74
2023/08/09 04:16:15;;;;;;;5.87;2.67;;;;;;;14.89;88.66;95490.28;4938284;28;20241;-75
2023/08/09 04:18:40;;;;;;;5.93;2.63;;;;;;;14.84;88.94;95485.66;4924725;28;20259;-75
2023/08/09 04:21:06;;;;;;;5.97;2.80;;;;;;;14.75;89.08;95481.66;4929147;28;20229;-73
2023/08/09 04:23:32;;;;;;;6.83;2.43;;;;;;;14.83;89.05;95476.16;4932227;29;20286;-76
2023/08/09 04:25:58;;;;;;;4.40;2.57;;;;;;;14.75;89.46;95482.47;4929604;28;20336;-76
2023/08/09 04:28:24;;;;;;;5.13;2.73;;;;;;;14.76;89.67;95486.72;4945153;28;20233;-76
2023/08/09 04:30:49;;;;;;;5.33;2.60;;;;;;;14.70;90.24;95484.13;4992813;28;20297;-75
2023/08/09 04:33:14;;;;;;;6.80;2.70;;;;;;;14.59;91.13;95479.53;4948210;28;20236;-75
2023/08/09 04:35:42;;;;;;;4.23;2.60;;;;;;;14.78;90.63;95484.66;4944316;28;20234;-75
2023/08/09 04:38:07;;;;;;;7.37;2.80;;;;;;;15.12;88.56;95487.91;4918680;29;20279;-74
2023/08/09 04:40:36;;;;;;;4.97;2.73;;;;;;;15.45;86.03;95489.31;4945198;28;20284;-75
2023/08/09 04:43:02;;;;;;;6.83;3.10;;;;;;;15.53;84.96;95482.97;4912488;29;20233;-75
2023/08/09 04:45:28;;;;;;;10.00;5.73;;;;;;;15.63;84.74;95485.13;4931514;29;20368;-74
2023/08/09 04:47:53;;;;;;;6.07;3.60;;;;;;;15.55;85.86;95480.91;4929103;28;20237;-74
2023/08/09 04:50:22;;;;;;;7.80;3.60;;;;;;;15.75;84.53;95480.75;4932193;28;20234;-75
2023/08/09 04:52:47;;;;;;;6.07;3.80;;;;;;;15.69;84.97;95482.41;4930210;28;20243;-75
2023/08/09 04:55:13;;;;;;;8.33;3.20;;;;;;;15.80;84.57;95488.81;4931821;28;20230;-74
2023/08/09 04:57:39;;;;;;;5.53;3.67;;;;;;;15.67;84.81;95484.47;4992356;28;20237;-73
2023/08/09 05:00:08;;;;;;;8.97;4.13;;;;;;;15.88;84.10;95481.41;4966983;28;20260;-74
2023/08/09 05:02:36;;;;;;;11.77;7.97;;;;;;;15.84;83.47;95479.44;4940056;28;20240;-76
2023/08/09 05:05:11;;;;;;;5.83;3.30;;;;;;;15.68;84.42;95470.25;4928323;29;20232;-75
2023/08/09 05:07:37;;;;;;;5.17;3.40;;;;;;;15.72;84.46;95489.09;4941151;29;20241;-74
2023/08/09 05:10:04;;;;;;;5.80;3.47;;;;;;;15.83;84.02;95483.94;4935315;28;20263;-76
2023/08/09 05:12:30;;;;;;;3.83;3.03;;;;;;;16.27;81.26;95488.13;4958349;28;20244;-69
2023/08/09 05:14:57;;;;;;;4.47;2.70;;;;;;;17.52;75.24;95489.13;4927870;28;20239;-69
2023/08/09 05:17:22;;;;;;;4.37;2.70;;;;;;;17.63;74.34;95493.59;4952728;28;20236;-68
2023/08/09 05:19:50;;;;;;;4.53;2.60;;;;;;;17.03;77.46;95495.53;4935033;28;20233;-70
2023/08/09 05:22:19;;;;;;;5.87;2.80;;;;;;;17.28;76.49;95497.00;4920621;28;20242;-71
2023/08/09 05:24:45;;;;;;;2.83;2.50;;;;;;;17.07;76.50;95513.38;4955022;28;20295;-70
2023/08/09 05:27:11;;;;;;;4.20;2.83;;;;;;;17.25;76.96;95508.00;4947292;28;20794;-70
2023/08/09 05:29:36;;;;;;;4.03;3.30;;;;;;;19.13;68.86;95513.81;4950207;28;20349;-69
2023/08/09 05:32:03;;;;;;;4.07;2.83;;;;;;;20.34;64.19;95513.13;4946712;28;20232;-69
2023/08/09 05:34:29;;;;;;;6.27;3.00;;;;;;;19.82;65.46;95517.94;4949337;28;20241;-70
2023/08/09 05:36:55;;;;;;;4.80;2.80;;;;;;;19.67;66.89;95520.34;4956553;28;20269;-70
2023/08/09 05:39:20;;;;;;;6.33;2.60;;;;;;;18.50;71.43;95509.38;4945626;28;20242;-69
2023/08/09 05:41:46;;;;;;;5.13;2.80;;;;;;;17.68;75.31;95502.47;4933648;28;20233;-70
2023/08/09 05:44:11;;;;;;;4.03;2.70;;;;;;;17.71;74.78;95503.88;4943108;28;20241;-70
2023/08/09 05:46:37;;;;;;;4.77;2.97;;;;;;;17.65;75.16;95502.94;4965889;28;20739;-71
2023/08/09 05:49:03;;;;;;;3.70;3.10;;;;;;;17.63;75.68;95498.91;4942878;28;20263;-70
2023/08/09 05:51:31;;;;;;;3.83;2.93;;;;;;;17.61;75.22;95499.13;4971900;28;20232;-70
2023/08/09 05:53:59;;;;;;;4.53;3.17;;;;;;;17.38;76.75;95497.25;4939708;28;20259;-71
2023/08/09 05:56:24;;;;;;;4.93;3.03;;;;;;;17.57;75.64;95502.47;4952324;28;20714;-70
2023/08/09 05:58:50;;;;;;;5.20;3.27;;;;;;;17.47;75.87;95501.16;4951008;28;20233;-69
2023/08/09 06:01:16;;;;;;;4.77;3.20;;;;;;;17.55;76.70;95499.25;4943489;28;20656;-71
2023/08/09 06:03:42;;;;;;;7.00;3.37;;;;;;;17.43;75.84;95502.63;4950581;28;20229;-69
2023/08/09 06:06:07;;;;;;;4.60;3.20;;;;;;;17.42;75.93;95495.75;4953372;28;20236;-71
2023/08/09 06:08:34;;;;;;;6.93;3.50;;;;;;;17.19;77.09;95495.72;4937678;28;20245;-70
2023/08/09 06:11:00;;;;;;;5.27;3.30;;;;;;;17.35;77.91;95500.34;4947395;28;20736;-70
2023/08/09 06:13:25;;;;;;;5.97;3.77;;;;;;;17.32;76.89;95492.84;4970480;28;20240;-71
2023/08/09 06:15:51;;;;;;;5.30;3.70;;;;;;;17.54;76.67;95494.97;4941299;28;20656;-71
2023/08/09 06:18:16;;;;;;;6.67;3.90;;;;;;;17.70;75.34;95496.94;4959673;28;20678;-72
2023/08/09 06:20:43;;;;;;;6.63;3.87;;;;;;;17.70;75.21;95494.31;4941821;28;20225;-71
2023/08/09 06:23:09;;;;;;;6.83;3.83;;;;;;;17.75;74.95;95489.94;4966037;28;20237;-70
2023/08/09 06:25:35;;;;;;;6.20;4.03;;;;;;;17.72;75.40;95493.03;4947303;28;20299;-71
2023/08/09 06:28:00;;;;;;;8.97;4.00;;;;;;;17.76;75.64;95488.09;4948003;28;20228;-71
2023/08/09 06:30:26;;;;;;;8.40;4.27;;;;;;;17.72;75.35;95493.03;4950614;28;20236;-70
2023/08/09 06:32:53;;;;;;;9.73;4.10;;;;;;;17.72;75.54;95474.50;4935848;28;20229;-70
2023/08/09 06:35:19;;;;;;;8.23;4.30;;;;;;;17.74;76.19;95477.75;4943509;28;20232;-70
2023/08/09 06:37:48;;;;;;;8.70;4.70;;;;;;;17.89;76.45;95472.78;4934840;28;20243;-69
2023/08/09 06:40:18;;;;;;;9.20;5.30;;;;;;;18.06;74.11;95473.69;4960979;28;20237;-70
2023/08/09 06:42:44;;;;;;;7.33;4.70;;;;;;;18.12;74.71;95482.56;4967164;28;20286;-71
2023/08/09 06:45:10;;;;;;;8.07;4.73;;;;;;;17.95;74.94;95473.72;4951433;28;20237;-70
2023/08/09 06:47:38;;;;;;;6.40;4.70;;;;;;;17.84;76.18;95479.81;4957094;28;20241;-71
2023/08/09 06:50:06;;;;;;;7.03;4.83;;;;;;;17.62;75.58;95478.78;4984921;28;20244;-70
2023/08/09 06:52:38;;;;;;;8.63;4.80;;;;;;;17.81;75.18;95477.63;4924206;29;20244;-70
2023/08/09 06:55:07;;;;;;;7.90;4.83;;;;;;;17.85;75.62;95476.13;5023696;28;20232;-69
2023/08/09 06:57:33;;;;;;;8.13;4.80;;;;;;;17.98;75.14;95476.69;4932048;28;20331;-69
2023/08/09 06:59:59;;;;;;;14.40;4.40;;;;;;;18.16;74.86;95468.63;4945684;28;20245;-68
2023/08/09 07:02:26;;;;;;;8.03;4.30;;;;;;;18.34;74.70;95465.00;4929305;29;20324;-70
2023/08/09 07:04:53;;;;;;;10.20;4.70;;;;;;;18.10;74.18;95469.53;4925976;29;20245;-70
2023/08/09 07:07:19;;;;;;;9.23;4.83;;;;;;;18.20;74.55;95468.94;4929158;29;20233;-71
2023/08/09 07:09:44;;;;;;;11.83;5.10;;;;;;;18.36;74.50;95462.94;4915920;29;20615;-69
2023/08/09 07:12:10;;;;;;;7.87;4.73;;;;;;;18.34;74.04;95457.03;4929021;29;20252;-74
2023/08/09 07:14:36;;;;;;;9.57;4.50;;;;;;;18.43;74.09;95457.50;4949696;28;20233;-74
2023/08/09 07:17:02;;;;;;;8.97;4.27;;;;;;;18.49;73.40;95449.44;4932505;28;20662;-74
2023/08/09 07:19:28;;;;;;;9.07;4.43;;;;;;;18.70;73.16;95459.41;4932517;29;20242;-75
2023/08/09 07:21:53;;;;;;;8.97;5.10;;;;;;;18.91;71.64;95459.78;4981389;28;20224;-74
2023/08/09 07:24:20;;;;;;;7.33;4.50;;;;;;;18.94;71.07;95454.00;4927079;29;20238;-75
2023/08/09 07:26:46;;;;;;;8.83;4.43;;;;;;;18.97;71.65;95459.63;4921078;29;20678;-75
2023/08/09 07:29:12;;;;;;;7.70;4.27;;;;;;;19.05;70.63;95450.50;4920160;28;20727;-76
2023/08/09 07:31:37;;;;;;;7.33;4.00;;;;;;;19.14;70.12;95455.16;4929732;29;20232;-75
2023/08/09 07:34:03;;;;;;;7.07;3.80;;;;;;;19.16;69.99;95452.25;4939584;28;20245;-75
2023/08/09 07:36:28;;;;;;;3.93;3.53;;;;;;;19.06;70.20;95444.94;4941149;29;20619;-75
2023/08/09 07:38:54;;;;;;;6.93;3.50;;;;;;;19.24;67.95;95450.03;4932957;28;20242;-75
2023/08/09 07:41:20;;;;;;;3.57;3.23;;;;;;;19.22;69.14;95440.69;4981270;28;20294;-75
2023/08/09 07:43:45;;;;;;;7.70;3.10;;;;;;;19.34;68.17;95449.41;4929333;28;20713;-75
2023/08/09 07:46:11;;;;;;;14.13;8.23;;;;;;;19.47;67.95;95446.44;4918938;28;20236;-76
2023/08/09 07:48:36;;;;;;;5.97;3.70;;;;;;;19.50;68.82;95443.31;4904937;28;20656;-74
2023/08/09 07:51:02;;;;;;;5.17;3.20;;;;;;;19.55;67.80;95442.59;4932573;28;20301;-76
2023/08/09 07:53:28;;;;;;;7.33;3.40;;;;;;;19.62;68.01;95437.91;4934946;29;20249;-73
2023/08/09 07:55:53;;;;;;;5.13;3.70;;;;;;;19.79;67.37;95431.53;4925022;28;20663;-73
2023/08/09 07:58:19;;;;;;;5.20;4.03;;;;;;;19.92;66.66;95433.84;4937406;29;20231;-74
2023/08/09 08:00:45;;;;;;;5.63;4.03;;;;;;;19.90;67.07;95427.16;4931149;28;20321;-75
2023/08/09 08:03:10;;;;;;;4.73;3.20;;;;;;;20.09;66.54;95437.28;4942369;28;20237;-75
2023/08/09 08:05:39;;;;;;;5.43;3.20;;;;;;;20.24;63.94;95433.22;4935930;28;20256;-74
2023/08/09 08:08:04;;;;;;;3.63;3.20;;;;;;;20.18;65.55;95427.00;4991695;28;20241;-76
2023/08/09 08:10:30;;;;;;;5.47;3.00;;;;;;;20.27;64.71;95424.78;4939888;29;20233;-76
2023/08/09 08:12:55;;;;;;;4.13;3.10;;;;;;;20.22;65.05;95424.69;4932222;29;20237;-74
2023/08/09 08:15:22;;;;;;;5.03;3.00;;;;;;;20.40;65.20;95419.88;4920798;28;20743;-75
2023/08/09 08:17:50;;;;;;;5.40;2.80;;;;;;;20.50;63.23;95424.50;4923704;28;20252;-75
2023/08/09 08:20:16;;;;;;;4.10;2.83;;;;;;;20.60;63.07;95428.09;4945672;28;20237;-75
2023/08/09 08:22:43;;;;;;;4.97;2.77;;;;;;;20.74;62.39;95423.19;4933431;29;20342;-75
2023/08/09 08:25:10;;;;;;;3.90;2.70;;;;;;;20.78;61.21;95424.28;4933106;29;20241;-74
2023/08/09 08:27:36;;;;;;;5.30;2.97;;;;;;;20.87;62.04;95422.00;4976422;28;20236;-75
2023/08/09 08:30:04;;;;;;;3.40;2.83;;;;;;;20.86;63.05;95420.38;4981983;28;20238;-74
2023/08/09 08:32:30;;;;;;;3.87;3.17;;;;;;;20.86;61.90;95418.53;4922428;29;20273;-74
2023/08/09 08:34:56;;;;;;;5.47;3.07;;;;;;;20.85;62.71;95416.91;4934256;28;20269;-76
2023/08/09 08:37:24;;;;;;;5.07;2.90;;;;;;;20.95;62.30;95410.88;4986271;28;20287;-75
2023/08/09 08:39:50;;;;;;;3.97;2.83;;;;;;;21.06;63.10;95415.28;4933646;28;20345;-74
2023/08/09 08:42:17;;;;;;;3.47;2.50;;;;;;;21.28;61.81;95419.47;4932534;28;20233;-75
2023/08/09 08:44:43;;;;;;;3.13;2.70;;;;;;;21.28;61.52;95411.50;4925209;28;20233;-75
2023/08/09 08:47:09;;;;;;;3.47;2.80;;;;;;;21.37;61.91;95412.63;4921926;29;20290;-75
2023/08/09 08:49:34;;;;;;;5.20;2.90;;;;;;;21.19;62.29;95413.00;4920045;29;20233;-74
2023/08/09 08:52:00;;;;;;;3.53;3.10;;;;;;;21.22;62.99;95404.53;5020578;28;20304;-75
2023/08/09 08:54:26;;;;;;;4.53;2.80;;;;;;;21.37;62.17;95401.19;4955040;28;20257;-75
2023/08/09 08:56:52;;;;;;;3.20;2.70;;;;;;;21.62;61.41;95393.38;4958135;28;20256;-75
2023/08/09 08:59:18;;;;;;;3.30;2.73;;;;;;;21.63;61.68;95388.84;4997457;28;20780;-75
2023/08/09 09:01:44;;;;;;;4.60;3.00;;;;;;;21.66;62.54;95389.13;4952684;28;20260;-74
2023/08/09 09:04:10;;;;;;;2.90;2.70;;;;;;;21.72;61.53;95382.78;4946052;28;20317;-74
2023/08/09 09:06:35;;;;;;;5.93;3.20;;;;;;;21.96;60.91;95380.53;4938863;28;20626;-75
2023/08/09 09:09:02;;;;;;;3.28;2.67;;;;;;;22.06;59.27;95381.41;4930232;28;20236;-75
2023/08/09 09:11:27;;;;;;;3.30;2.80;;;;;;;22.03;60.77;95368.59;4936438;28;20704;-75
2023/08/09 09:13:53;;;;;;;3.00;2.70;;;;;;;22.24;59.67;95379.34;4958024;28;20247;-75
2023/08/09 09:16:19;;;;;;;3.30;2.90;;;;;;;22.34;58.99;95379.38;4936194;28;20807;-76
2023/08/09 09:18:46;;;;;;;3.00;2.77;;;;;;;22.34;59.54;95369.53;4934130;28;20710;-74
2023/08/09 09:21:14;;;;;;;3.03;2.67;;;;;;;22.46;58.45;95378.09;4954505;28;20238;-75
2023/08/09 09:23:39;;;;;;;5.23;2.50;;;;;;;22.55;57.91;95375.72;4940673;28;20266;-74
2023/08/09 09:26:09;;;;;;;3.63;2.57;;;;;;;22.49;57.67;95380.25;4923012;28;20265;-74
2023/08/09 09:28:42;;;;;;;3.93;2.53;;;;;;;22.55;57.42;95381.84;4922378;28;20324;-74
2023/08/09 09:31:10;;;;;;;5.80;2.80;;;;;;;22.70;56.75;95368.59;4924782;28;20229;-75
2023/08/09 09:33:36;;;;;;;2.97;2.67;;;;;;;22.79;57.24;95367.00;4923616;29;20316;-74
2023/08/09 09:36:02;;;;;;;3.33;2.70;;;;;;;22.88;56.38;95359.25;4949415;28;20232;-74
2023/08/09 09:38:28;;;;;;;4.67;2.77;;;;;;;22.95;57.44;95357.13;4915836;29;20240;-75
2023/08/09 09:40:53;;;;;;;2.77;2.50;;;;;;;23.02;56.59;95351.56;4945430;28;20221;-73
2023/08/09 09:43:19;;;;;;;3.73;2.60;;;;;;;23.36;54.77;95357.97;5000818;28;20234;-76
2023/08/09 09:45:45;;;;;;;4.35;2.60;;;;;;;23.47;55.27;95348.09;4992372;28;20797;-75
2023/08/09 09:48:20;;;;;;;3.20;2.42;;;;;;;23.47;54.00;95338.22;4941376;28;20244;-75
2023/08/09 09:50:46;;;;;;;2.75;2.50;;;;;;;23.49;54.92;95329.91;4944805;28;20248;-75
2023/08/09 09:53:13;;;;;;;2.67;2.25;;;;;;;23.63;54.81;95330.94;4932817;28;20294;-74
2023/08/09 09:55:40;;;;;;;2.80;2.60;;;;;;;23.73;55.51;95322.91;4927100;28;20725;-74
2023/08/09 09:58:06;;;;;;;4.07;2.50;;;;;;;23.81;53.72;95325.81;4924152;28;20232;-75
2023/08/09 10:00:32;;;;;;;3.10;2.60;;;;;;;24.03;54.92;95323.63;4933167;28;20271;-75
2023/08/09 10:03:00;;;;;;;2.60;2.40;;;;;;;24.15;52.68;95325.19;4933733;29;20782;-76
2023/08/09 10:05:39;;;;;;;5.55;2.47;;;;;;;24.30;48.59;95330.50;4924999;29;20670;-73
2023/08/09 10:08:08;;;;;;;2.58;2.38;;;;;;;24.15;50.15;95328.69;4990743;28;20258;-75
2023/08/09 10:10:35;;;;;;;2.72;2.47;;;;;;;24.23;48.67;95316.59;4961852;28;20774;-74
2023/08/09 10:13:01;;;;;;;2.50;2.30;;;;;;;24.19;49.67;95320.91;4921844;28;20321;-75
2023/08/09 10:15:40;;;;;;;2.40;2.20;;;;;;;24.33;48.06;95314.69;4963712;28;20287;-74
2023/08/09 10:18:27;;;;;;;3.00;2.30;;;;;;;24.35;49.31;95304.50;4972625;28;20232;-75
2023/08/09 10:20:55;;;;;;;3.35;2.20;;;;;;;24.63;48.41;95311.03;4933003;29;20828;-75
2023/08/09 10:23:21;;;;;;;2.40;2.20;;;;;;;24.81;49.03;95307.75;4934283;29;20233;-75
2023/08/09 10:25:47;;;;;;;2.58;2.17;;;;;;;24.90;46.89;95303.38;4916404;29;20237;-74
2023/08/09 10:28:12;;;;;;;2.55;2.35;;;;;;;25.14;47.50;95298.09;4934981;29;20251;-78
2023/08/09 10:30:48;;;;;;;2.63;2.35;;;;;;;25.01;47.26;95294.19;4931657;28;20233;-73
2023/08/09 10:33:20;;;;;;;2.72;2.35;;;;;;;24.87;47.29;95295.09;4949436;28;20745;-76
2023/08/09 10:35:48;;;;;;;3.67;2.38;;;;;;;24.96;47.52;95282.72;4928234;28;20276;-77
2023/08/09 10:38:34;;;;;;;3.35;2.53;;;;;;;25.01;47.19;95282.66;4923200;29;20352;-76
2023/08/09 10:41:06;;;;;;;4.13;2.35;;;;;;;25.15;46.18;95276.38;4973162;28;20241;-76
2023/08/09 10:43:32;;;;;;;3.33;2.50;;;;;;;25.34;45.20;95279.94;5016940;28;20226;-74
2023/08/09 10:45:59;;;;;;;2.70;2.40;;;;;;;25.54;45.83;95275.50;4929812;28;20308;-76
2023/08/09 10:48:25;;;;;;;2.97;2.28;;;;;;;25.75;46.29;95272.31;4923780;29;20625;-75
2023/08/09 10:51:13;;;;;;;3.88;2.40;;;;;;;25.74;46.30;95275.28;4928616;28;20253;-75
2023/08/09 10:53:57;;;;;;;6.45;2.67;;;;;;;25.74;45.80;95270.72;4931590;29;20723;-74
2023/08/09 10:56:41;;;;;;;4.00;2.20;;;;;;;25.63;45.15;95260.38;4948831;28;20269;-74
2023/08/09 10:59:24;;;;;;;2.67;2.20;;;;;;;25.80;44.95;95256.16;4952584;28;20260;-75
2023/08/09 11:01:49;;;;;;;3.22;2.25;;;;;;;25.48;44.72;95260.56;4963595;28;20237;-74
2023/08/09 11:04:18;;;;;;;4.43;2.47;;;;;;;25.52;46.30;95256.22;4928429;28;20259;-75
2023/08/09 11:06:46;;;;;;;3.40;2.60;;;;;;;25.15;45.41;95257.63;4913014;28;20237;-76
2023/08/09 11:09:14;;;;;;;2.42;2.22;;;;;;;24.79;45.31;95245.59;4952556;28;20241;-75
2023/08/09 11:11:41;;;;;;;4.03;2.40;;;;;;;24.64;46.35;95254.56;4960980;28;20232;-75
2023/08/09 11:14:07;;;;;;;2.60;2.40;;;;;;;24.50;47.06;95245.56;4941546;28;20240;-76
2023/08/09 11:16:32;;;;;;;2.63;2.15;;;;;;;24.31;45.99;95239.25;4934236;28;20754;-75
2023/08/09 11:19:07;;;;;;;3.47;2.15;;;;;;;24.65;45.97;95242.75;4950250;28;20247;-74
2023/08/09 11:21:40;;;;;;;3.80;2.25;;;;;;;24.99;46.06;95231.25;4941249;28;20235;-75
2023/08/09 11:24:09;;;;;;;3.00;2.10;;;;;;;25.08;45.35;95234.91;5011054;28;20229;-76
2023/08/09 11:26:36;;;;;;;2.55;2.22;;;;;;;25.12;43.95;95236.78;4963876;28;20325;-75
2023/08/09 11:29:05;;;;;;;2.78;2.38;;;;;;;25.29;45.79;95226.41;4949451;28;20240;-75
2023/08/09 11:31:39;;;;;;;2.55;2.33;;;;;;;25.38;44.57;95222.03;4985016;28;20320;-76
2023/08/09 11:34:05;;;;;;;4.32;2.30;;;;;;;25.60;44.09;95213.50;4958366;28;20241;-74